createdAt,value
2018-06-03T00:02:36.738Z,42.6
2018-06-03T00:07:34.611Z,42.6
2018-06-03T00:12:32.647Z,42.5
2018-06-03T00:17:30.614Z,42.6
2018-06-03T00:22:28.506Z,42.6
2018-06-03T00:27:26.603Z,42.5
2018-06-03T00:32:24.577Z,42.5
2018-06-03T00:37:22.464Z,42.5
2018-06-03T00:42:20.397Z,42.5
2018-06-03T00:47:18.377Z,42.4
2018-06-03T00:52:16.346Z,42.4
2018-06-03T00:57:14.257Z,42.4
2018-06-03T01:02:12.080Z,42.6
2018-06-03T01:07:10.239Z,42.7
2018-06-03T01:12:07.413Z,42.7
2018-06-03T01:17:05.302Z,42.7
2018-06-03T01:22:03.170Z,42.8
2018-06-03T01:27:00.785Z,42.8
2018-06-03T01:31:58.613Z,42.8
2018-06-03T01:36:56.189Z,42.9
2018-06-03T01:41:54.168Z,42.9
2018-06-03T01:46:52.109Z,42.9
2018-06-03T01:51:49.995Z,42.9
2018-06-03T01:56:47.974Z,43
2018-06-03T02:01:46.057Z,43
2018-06-03T02:06:43.943Z,42.9
2018-06-03T02:11:41.303Z,42.9
2018-06-03T02:16:38.863Z,43
2018-06-03T02:21:36.711Z,43.1
2018-06-03T02:26:34.717Z,43.2
2018-06-03T02:31:32.087Z,43.4
2018-06-03T02:36:29.926Z,43.4
2018-06-03T02:41:27.939Z,43.5
2018-06-03T02:46:25.755Z,43.5
2018-06-03T02:51:23.321Z,43.6
2018-06-03T02:56:21.343Z,43.7
2018-06-03T03:01:19.300Z,43.7
2018-06-03T03:06:17.441Z,43.8
2018-06-03T03:11:15.065Z,43.9
2018-06-03T03:16:12.956Z,43.9
2018-06-03T03:21:10.944Z,44
2018-06-03T03:26:08.811Z,44.1
2018-06-03T03:31:06.577Z,44.1
2018-06-03T03:36:04.322Z,44.2
2018-06-03T03:41:02.556Z,44.4
2018-06-03T03:46:00.495Z,44.5
2018-06-03T03:50:58.492Z,44.4
2018-06-03T03:55:56.523Z,44.5
2018-06-03T04:00:54.523Z,44.5
2018-06-03T04:05:52.496Z,44.6
2018-06-03T04:10:50.353Z,45.1
2018-06-03T04:15:47.677Z,46
2018-06-03T04:20:45.879Z,45.8
2018-06-03T04:25:43.909Z,45.9
2018-06-03T04:30:41.773Z,45.9
2018-06-03T04:35:39.152Z,46
2018-06-03T04:40:37.133Z,46
2018-06-03T04:45:35.163Z,46
2018-06-03T04:50:33.593Z,46
2018-06-03T04:55:31.948Z,45.9
2018-06-03T05:00:29.701Z,45.9
2018-06-03T05:05:27.283Z,46.1
2018-06-03T05:10:25.279Z,46.2
2018-06-03T05:15:22.589Z,46.2
2018-06-03T05:20:20.541Z,46.4
2018-06-03T05:25:18.623Z,46.9
2018-06-03T05:30:16.625Z,47
2018-06-03T05:35:14.532Z,46.8
2018-06-03T05:40:12.469Z,46.6
2018-06-03T05:45:10.339Z,45.6
2018-06-03T05:50:08.295Z,45.3
2018-06-03T05:55:06.090Z,45.1
2018-06-03T06:00:04.143Z,45.4
2018-06-03T06:05:01.657Z,45.8
2018-06-03T06:09:59.511Z,46.5
2018-06-03T06:14:57.536Z,46.8
2018-06-03T06:19:55.573Z,47.4
2018-06-03T06:24:53.965Z,48.2
2018-06-03T06:29:51.815Z,48.8
2018-06-03T06:34:50.189Z,49.3
2018-06-03T06:39:48.247Z,49.1
2018-06-03T06:44:46.387Z,49.6
2018-06-03T06:49:44.399Z,49.4
2018-06-03T06:54:42.728Z,49.8
2018-06-03T06:59:40.770Z,50
2018-06-03T07:04:38.960Z,50.3
2018-06-03T07:09:36.939Z,49.9
2018-06-03T07:14:35.081Z,48.9
2018-06-03T07:19:33.263Z,48.1
2018-06-03T07:24:31.204Z,47.9
2018-06-03T07:29:29.037Z,47.7
2018-06-03T07:34:26.329Z,47.4
2018-06-03T07:39:24.190Z,47.5
2018-06-03T07:44:22.243Z,47.6
2018-06-03T07:49:20.348Z,47.6
2018-06-03T07:54:18.529Z,47.4
2018-06-03T07:59:17.080Z,47.6
2018-06-03T08:04:15.064Z,47.7
2018-06-03T08:09:13.438Z,47.7
2018-06-03T08:14:12.013Z,47.5
2018-06-03T08:19:09.719Z,47.5
2018-06-03T08:24:08.055Z,47.5
2018-06-03T08:29:06.420Z,47.5
2018-06-03T08:34:04.948Z,47.5
2018-06-03T08:39:03.592Z,47.6
2018-06-03T08:44:01.908Z,47.6
2018-06-03T08:48:59.863Z,47.6
2018-06-03T08:53:58.281Z,47.7
2018-06-03T08:58:56.552Z,47.7
2018-06-03T09:03:54.597Z,47.8
2018-06-03T09:08:52.867Z,47.8
2018-06-03T09:13:50.099Z,47.6
2018-06-03T09:18:48.727Z,47.6
2018-06-03T09:23:46.950Z,47.6
2018-06-03T09:28:44.589Z,47.7
2018-06-03T09:33:42.842Z,47.8
2018-06-03T09:38:41.119Z,47.6
2018-06-03T09:43:39.185Z,47.4
2018-06-03T09:48:37.504Z,47.4
2018-06-03T09:53:35.568Z,47.3
2018-06-03T09:58:33.661Z,47.1
2018-06-03T10:03:31.841Z,47
2018-06-03T10:08:29.980Z,47.5
2018-06-03T10:13:27.678Z,47.8
2018-06-03T10:18:25.757Z,47.4
2018-06-03T10:23:23.807Z,47.2
2018-06-03T10:28:21.811Z,47.1
2018-06-03T10:33:19.977Z,48
2018-06-03T10:38:18.195Z,47.6
2018-06-03T10:43:16.304Z,48.6
2018-06-03T10:48:14.527Z,45.9
2018-06-03T10:53:12.572Z,46
2018-06-03T10:58:10.786Z,45.2
2018-06-03T11:03:08.552Z,44.9
2018-06-03T11:08:06.585Z,44.8
2018-06-03T11:13:04.642Z,44.4
2018-06-03T11:18:02.724Z,44
2018-06-03T11:23:00.941Z,44.2
2018-06-03T11:27:58.828Z,44.5
2018-06-03T11:32:57.114Z,44.4
2018-06-03T11:37:55.327Z,44.4
2018-06-03T11:42:53.255Z,44.5
2018-06-03T11:47:50.940Z,44.1
2018-06-03T11:52:49.874Z,43.6
2018-06-03T11:57:49.561Z,42.9
2018-06-03T12:02:47.560Z,42.5
2018-06-03T12:07:45.804Z,43
2018-06-03T12:12:43.635Z,42
2018-06-03T12:17:41.141Z,41.7
2018-06-03T12:22:39.114Z,42
2018-06-03T12:27:37.432Z,42
2018-06-03T12:32:35.800Z,42
2018-06-03T12:37:34.069Z,41.9
2018-06-03T12:42:31.915Z,42
2018-06-03T12:47:29.839Z,41.3
2018-06-03T12:52:27.491Z,40.1
2018-06-03T12:57:25.966Z,39.8
2018-06-03T13:02:23.969Z,39.7
2018-06-03T13:07:22.040Z,40.3
2018-06-03T13:12:20.286Z,40.6
2018-06-03T13:17:18.205Z,41
2018-06-03T13:22:16.548Z,41
2018-06-03T13:27:15.037Z,40.8
2018-06-03T13:32:13.393Z,40.5
2018-06-03T13:37:11.446Z,40.8
2018-06-03T13:42:09.725Z,41.2
2018-06-03T13:47:07.778Z,41.7
2018-06-03T13:52:05.879Z,42.7
2018-06-03T13:57:03.897Z,43.2
2018-06-03T14:02:01.988Z,43.5
2018-06-03T14:07:00.042Z,43.5
2018-06-03T14:11:58.062Z,43.7
2018-06-03T14:16:55.948Z,43.9
2018-06-03T14:21:54.110Z,43.9
2018-06-03T14:26:52.310Z,44.1
2018-06-03T14:31:50.453Z,44.3
2018-06-03T14:36:48.181Z,44.5
2018-06-03T14:41:46.164Z,44.6
2018-06-03T14:46:44.069Z,44.7
2018-06-03T14:51:42.241Z,44.8
2018-06-03T14:56:40.307Z,44.8
2018-06-03T15:01:38.223Z,44.9
2018-06-03T15:06:36.337Z,45
2018-06-03T15:11:34.482Z,44.9
2018-06-03T15:16:32.643Z,44.8
2018-06-03T15:21:30.442Z,44.7
2018-06-03T15:26:28.650Z,44.7
2018-06-03T15:31:26.539Z,44.7
2018-06-03T15:36:24.642Z,44.7
2018-06-03T15:41:22.388Z,44.8
2018-06-03T15:46:20.594Z,44.8
2018-06-03T15:51:18.345Z,44.9
2018-06-03T15:56:16.532Z,45
2018-06-03T16:01:14.294Z,45.1
2018-06-03T16:06:12.279Z,45.1
2018-06-03T16:11:10.311Z,45.1
2018-06-03T16:16:08.361Z,45.1
2018-06-03T16:21:06.513Z,45.2
2018-06-03T16:26:04.636Z,45.2
2018-06-03T16:31:02.520Z,45.3
2018-06-03T16:36:00.431Z,45.3
2018-06-03T16:40:58.412Z,45.2
2018-06-03T16:45:56.669Z,45.3
2018-06-03T16:50:54.668Z,45.4
2018-06-03T16:55:52.963Z,45.4
2018-06-03T17:00:50.597Z,45.5
2018-06-03T17:05:48.574Z,45.5
2018-06-03T17:10:46.475Z,45.6
2018-06-03T17:15:44.525Z,45.7
2018-06-03T17:20:42.618Z,45.5
2018-06-03T17:25:40.725Z,45.5
2018-06-03T17:30:38.161Z,45.6
2018-06-03T17:35:36.259Z,45.6
2018-06-03T17:40:34.422Z,45.6
2018-06-03T17:45:32.375Z,45.7
2018-06-03T17:50:30.322Z,45.7
2018-06-03T17:55:28.390Z,45.8
2018-06-03T18:00:26.628Z,45.8
2018-06-03T18:05:24.628Z,45.7
2018-06-03T18:10:22.903Z,45.6
2018-06-03T18:15:20.564Z,45.6
2018-06-03T18:20:18.694Z,45.7
2018-06-03T18:25:16.559Z,45.7
2018-06-03T18:30:14.641Z,45.7
2018-06-03T18:35:12.493Z,45.7
2018-06-03T18:40:10.021Z,45.7
2018-06-03T18:45:08.034Z,45.7
2018-06-03T18:50:06.132Z,45.7
2018-06-03T18:55:04.195Z,45.6
2018-06-03T19:00:01.692Z,45.6
2018-06-03T19:04:59.674Z,45.6
2018-06-03T19:09:57.564Z,45.6
2018-06-03T19:14:55.544Z,45.6
2018-06-03T19:19:53.664Z,45.6
2018-06-03T19:24:51.541Z,45.6
2018-06-03T19:29:49.197Z,45.6
2018-06-03T19:34:46.945Z,45.6
2018-06-03T19:39:45.256Z,45.5
2018-06-03T19:44:43.325Z,45.5
2018-06-03T19:49:41.166Z,45.5
2018-06-03T19:54:38.855Z,45.5
2018-06-03T19:59:37.019Z,45.5
2018-06-03T20:04:34.944Z,45.5
2018-06-03T20:09:32.966Z,45.5
2018-06-03T20:14:30.454Z,45.5
2018-06-03T20:19:28.341Z,45.5
2018-06-03T20:24:26.327Z,45.5
2018-06-03T20:29:24.190Z,45.4
2018-06-03T20:34:22.165Z,45.5
2018-06-03T20:39:20.160Z,45.5
2018-06-03T20:44:18.228Z,45.5
2018-06-03T20:49:16.337Z,45.5
2018-06-03T20:54:14.024Z,45.6
2018-06-03T20:59:11.794Z,45.6
2018-06-03T21:04:09.755Z,45.6
2018-06-03T21:09:07.778Z,45.6
2018-06-03T21:14:05.705Z,45.5
2018-06-03T21:19:03.297Z,45.5
2018-06-03T21:24:01.638Z,45.5
2018-06-03T21:28:59.531Z,45.6
2018-06-03T21:33:57.323Z,45.6
2018-06-03T21:38:55.286Z,45.6
2018-06-03T21:43:53.309Z,45.7
2018-06-03T21:48:51.057Z,45.7
2018-06-03T21:53:49.002Z,45.7
2018-06-03T21:58:46.826Z,45.6
2018-06-03T22:03:44.784Z,45.6
2018-06-03T22:08:42.649Z,45.6
2018-06-03T22:13:40.500Z,45.6
2018-06-03T22:18:38.436Z,45.7
2018-06-03T22:23:36.434Z,45.7
2018-06-03T22:28:34.069Z,45.7
2018-06-03T22:33:31.897Z,45.7
2018-06-03T22:38:29.931Z,45.8
2018-06-03T22:43:27.877Z,45.8
2018-06-03T22:48:25.314Z,45.7
2018-06-03T22:53:23.307Z,45.7
2018-06-03T22:58:21.401Z,45.7
2018-06-03T23:03:19.473Z,45.7
2018-06-03T23:08:17.505Z,45.8
2018-06-03T23:13:15.550Z,45.8
2018-06-03T23:18:12.994Z,45.8
2018-06-03T23:23:11.169Z,45.8
2018-06-03T23:28:09.080Z,45.9
2018-06-03T23:33:07.137Z,45.8
2018-06-03T23:38:05.031Z,45.8
2018-06-03T23:43:02.900Z,45.8
2018-06-03T23:48:01.169Z,45.9
2018-06-03T23:52:59.132Z,45.9
2018-06-03T23:57:56.788Z,45.9
